Orbital elements of FENGYUN 1C DEB
| Launched | 9 May 1999 |
| Flight ended | – |
| Launch site | Taiyuan Space Center, PRC |
| Owner | People's Republic of China |
| NORAD ID | 30414 |
| Date fetched |
Epoch osculation |
Inc. [°] |
Ecc. | RA asc node [hr] |
Arg Peri. [°] |
Mean anom [°] |
Mean motion [rev/day] |
Abs. mag |
| Date fetched |
Epoch osculation |
Inc. [°] |
Ecc. | RA asc node [hr] |
Arg Peri. [°] |
Mean anom [°] |
Mean motion [rev/day] |
Abs. mag |
| 2026 May 08 17:57 | 2026 May 05 10:44:31 | 99.0930 | 0.00579 | 19.6806 | 128.0758 | 232.5667 | 14.36085 | – |
| 2026 May 07 17:58 | 2026 May 05 10:44:31 | 99.0930 | 0.00579 | 19.6806 | 128.0758 | 232.5667 | 14.36085 | – |
| 2026 May 06 17:57 | 2026 May 05 10:44:31 | 99.0930 | 0.00579 | 19.6806 | 128.0758 | 232.5667 | 14.36085 | – |
| 2026 May 05 17:57 | 2026 May 05 10:44:31 | 99.0930 | 0.00579 | 19.6806 | 128.0758 | 232.5667 | 14.36085 | – |
| 2026 May 04 17:57 | 2026 Apr 30 10:20:37 | 99.0913 | 0.00578 | 19.3280 | 142.4854 | 232.5667 | 14.36085 | – |
| 2026 May 03 17:57 | 2026 Apr 30 10:20:37 | 99.0913 | 0.00578 | 19.3280 | 142.4854 | 232.5667 | 14.36085 | – |
| 2026 May 02 17:57 | 2026 Apr 30 10:20:37 | 99.0913 | 0.00578 | 19.3280 | 142.4854 | 232.5667 | 14.36085 | – |
| 2026 May 01 17:56 | 2026 Apr 30 10:20:37 | 99.0913 | 0.00578 | 19.3280 | 142.4854 | 232.5667 | 14.36085 | – |
| 2026 Apr 30 17:56 | 2026 Apr 30 10:20:37 | 99.0913 | 0.00578 | 19.3280 | 142.4854 | 232.5667 | 14.36085 | – |
| 2026 Apr 29 17:57 | 2026 Apr 24 10:31:38 | 99.0924 | 0.00577 | 18.9068 | 159.7154 | 232.5667 | 14.36085 | – |
| 2026 Apr 28 17:56 | 2026 Apr 24 10:31:38 | 99.0924 | 0.00577 | 18.9068 | 159.7154 | 232.5667 | 14.36085 | – |
| 2026 Apr 27 17:58 | 2026 Apr 24 10:31:38 | 99.0924 | 0.00577 | 18.9068 | 159.7154 | 232.5667 | 14.36085 | – |
| 2026 Apr 26 17:58 | 2026 Apr 24 10:31:38 | 99.0924 | 0.00577 | 18.9068 | 159.7154 | 232.5667 | 14.36085 | – |
| 2026 Apr 25 17:58 | 2026 Apr 24 10:31:38 | 99.0924 | 0.00577 | 18.9068 | 159.7154 | 232.5667 | 14.36085 | – |
| 2026 Apr 24 17:59 | 2026 Apr 24 10:31:38 | 99.0924 | 0.00577 | 18.9068 | 159.7154 | 232.5667 | 14.36085 | – |
| 2026 Apr 23 17:57 | 2026 Apr 19 00:05:00 | 99.0909 | 0.00576 | 18.5249 | 175.2270 | 232.5667 | 14.36085 | – |
| 2026 Apr 22 17:57 | 2026 Apr 19 00:05:00 | 99.0909 | 0.00576 | 18.5249 | 175.2270 | 232.5667 | 14.36085 | – |
| 2026 Apr 21 17:57 | 2026 Apr 19 00:05:00 | 99.0909 | 0.00576 | 18.5249 | 175.2270 | 232.5667 | 14.36085 | – |
| 2026 Apr 20 17:57 | 2026 Apr 19 00:05:00 | 99.0909 | 0.00576 | 18.5249 | 175.2270 | 232.5667 | 14.36085 | – |
| 2026 Apr 19 17:58 | 2026 Apr 19 00:05:00 | 99.0909 | 0.00576 | 18.5249 | 175.2270 | 232.5667 | 14.36085 | – |
| 2026 Apr 18 17:56 | 2026 Apr 13 00:15:22 | 99.0900 | 0.00573 | 18.1038 | 192.5909 | 232.5667 | 14.36085 | – |
| 2026 Apr 16 17:57 | 2026 Apr 13 00:15:22 | 99.0900 | 0.00573 | 18.1038 | 192.5909 | 232.5667 | 14.36085 | – |
| 2026 Apr 14 17:57 | 2026 Apr 13 00:15:22 | 99.0900 | 0.00573 | 18.1038 | 192.5909 | 232.5667 | 14.36085 | – |
| 2026 Apr 13 17:57 | 2026 Apr 13 00:15:22 | 99.0900 | 0.00573 | 18.1038 | 192.5909 | 232.5667 | 14.36085 | – |
| 2026 Apr 12 17:57 | 2026 Apr 08 09:52:27 | 99.0902 | 0.00571 | 17.7806 | 205.9505 | 232.5667 | 14.36085 | – |
| 2026 Apr 11 17:57 | 2026 Apr 08 09:52:27 | 99.0902 | 0.00571 | 17.7806 | 205.9505 | 232.5667 | 14.36085 | – |